sensor_id;sensor_type;location;lat;lon;timestamp;temperature;humidity
506;DHT22;551;48.524;9.056;2022-11-25T00:01:07;2.40;1.00
506;DHT22;551;48.524;9.056;2022-11-25T00:03:33;2.40;1.00
506;DHT22;551;48.524;9.056;2022-11-25T00:08:37;2.30;1.00
506;DHT22;551;48.524;9.056;2022-11-25T00:11:03;2.30;1.00
506;DHT22;551;48.524;9.056;2022-11-25T00:13:29;2.30;1.00
506;DHT22;551;48.524;9.056;2022-11-25T00:15:55;2.30;1.00
506;DHT22;551;48.524;9.056;2022-11-25T00:18:20;2.20;1.00
506;DHT22;551;48.524;9.056;2022-11-25T00:20:46;2.20;1.00
506;DHT22;551;48.524;9.056;2022-11-25T00:23:11;2.20;1.00
506;DHT22;551;48.524;9.056;2022-11-25T00:25:36;2.20;1.00
506;DHT22;551;48.524;9.056;2022-11-25T00:28:02;2.20;1.00
506;DHT22;551;48.524;9.056;2022-11-25T00:30:27;2.20;1.00
506;DHT22;551;48.524;9.056;2022-11-25T00:32:53;2.10;1.00
506;DHT22;551;48.524;9.056;2022-11-25T00:35:19;2.10;1.00
506;DHT22;551;48.524;9.056;2022-11-25T00:37:45;2.10;1.00
506;DHT22;551;48.524;9.056;2022-11-25T00:40:11;2.10;1.00
506;DHT22;551;48.524;9.056;2022-11-25T00:42:37;2.10;1.00
506;DHT22;551;48.524;9.056;2022-11-25T00:45:21;2.10;1.00
506;DHT22;551;48.524;9.056;2022-11-25T00:47:47;2.20;1.00
506;DHT22;551;48.524;9.056;2022-11-25T00:50:12;2.20;1.00
506;DHT22;551;48.524;9.056;2022-11-25T00:52:38;2.20;1.00
506;DHT22;551;48.524;9.056;2022-11-25T00:55:04;2.30;1.00
506;DHT22;551;48.524;9.056;2022-11-25T00:57:29;2.30;1.00
506;DHT22;551;48.524;9.056;2022-11-25T00:59:55;2.40;1.00
506;DHT22;551;48.524;9.056;2022-11-25T01:02:21;2.30;1.00
506;DHT22;551;48.524;9.056;2022-11-25T01:04:46;2.40;1.00
506;DHT22;551;48.524;9.056;2022-11-25T01:07:12;2.40;1.00
506;DHT22;551;48.524;9.056;2022-11-25T01:09:37;2.30;1.00
506;DHT22;551;48.524;9.056;2022-11-25T01:12:03;2.30;1.00
506;DHT22;551;48.524;9.056;2022-11-25T01:14:32;2.30;1.00
506;DHT22;551;48.524;9.056;2022-11-25T01:16:58;2.30;1.00
506;DHT22;551;48.524;9.056;2022-11-25T01:19:24;2.40;1.00
506;DHT22;551;48.524;9.056;2022-11-25T01:21:50;2.50;1.00
506;DHT22;551;48.524;9.056;2022-11-25T01:24:16;2.50;1.00
506;DHT22;551;48.524;9.056;2022-11-25T01:26:45;2.50;1.00
506;DHT22;551;48.524;9.056;2022-11-25T01:29:15;2.60;1.00
506;DHT22;551;48.524;9.056;2022-11-25T01:31:42;2.70;1.00
506;DHT22;551;48.524;9.056;2022-11-25T01:34:16;2.70;1.00
506;DHT22;551;48.524;9.056;2022-11-25T01:36:42;2.70;1.00
506;DHT22;551;48.524;9.056;2022-11-25T01:39:09;2.80;1.00
506;DHT22;551;48.524;9.056;2022-11-25T01:41:37;2.80;1.00
506;DHT22;551;48.524;9.056;2022-11-25T01:46:35;2.80;1.00
506;DHT22;551;48.524;9.056;2022-11-25T01:49:06;2.80;1.00
506;DHT22;551;48.524;9.056;2022-11-25T01:54:09;2.80;1.00
506;DHT22;551;48.524;9.056;2022-11-25T01:56:41;2.70;1.00
506;DHT22;551;48.524;9.056;2022-11-25T01:59:09;2.80;1.00
506;DHT22;551;48.524;9.056;2022-11-25T02:01:34;2.80;1.00
506;DHT22;551;48.524;9.056;2022-11-25T02:04:00;2.80;1.00
506;DHT22;551;48.524;9.056;2022-11-25T02:06:29;2.80;1.00
506;DHT22;551;48.524;9.056;2022-11-25T02:09:06;2.80;1.00
506;DHT22;551;48.524;9.056;2022-11-25T02:11:34;2.70;1.00
506;DHT22;551;48.524;9.056;2022-11-25T02:14:01;2.80;1.00
506;DHT22;551;48.524;9.056;2022-11-25T02:16:27;2.80;1.00
506;DHT22;551;48.524;9.056;2022-11-25T02:18:53;2.80;1.00
506;DHT22;551;48.524;9.056;2022-11-25T02:21:35;2.80;1.00
506;DHT22;551;48.524;9.056;2022-11-25T02:24:19;2.80;1.00
506;DHT22;551;48.524;9.056;2022-11-25T02:26:47;2.80;1.00
506;DHT22;551;48.524;9.056;2022-11-25T02:29:13;2.70;1.00
506;DHT22;551;48.524;9.056;2022-11-25T02:31:38;2.60;1.00
506;DHT22;551;48.524;9.056;2022-11-25T02:34:04;2.50;1.00
506;DHT22;551;48.524;9.056;2022-11-25T02:36:29;2.50;1.00
506;DHT22;551;48.524;9.056;2022-11-25T02:38:56;2.50;1.00
506;DHT22;551;48.524;9.056;2022-11-25T02:41:31;2.30;1.00
506;DHT22;551;48.524;9.056;2022-11-25T02:43:58;2.30;1.00
506;DHT22;551;48.524;9.056;2022-11-25T02:46:25;2.30;1.00
506;DHT22;551;48.524;9.056;2022-11-25T02:48:53;2.30;1.00
506;DHT22;551;48.524;9.056;2022-11-25T02:51:22;2.40;1.00
506;DHT22;551;48.524;9.056;2022-11-25T02:53:48;2.30;1.00
506;DHT22;551;48.524;9.056;2022-11-25T02:56:15;2.30;1.00
506;DHT22;551;48.524;9.056;2022-11-25T02:58:41;2.30;1.00
506;DHT22;551;48.524;9.056;2022-11-25T03:01:08;2.30;1.00
506;DHT22;551;48.524;9.056;2022-11-25T03:03:34;2.30;1.00
506;DHT22;551;48.524;9.056;2022-11-25T03:06:00;2.30;1.00
506;DHT22;551;48.524;9.056;2022-11-25T03:08:26;2.40;1.00
506;DHT22;551;48.524;9.056;2022-11-25T03:10:51;2.30;1.00
506;DHT22;551;48.524;9.056;2022-11-25T03:13:17;2.40;1.00
506;DHT22;551;48.524;9.056;2022-11-25T03:15:42;2.40;1.00
506;DHT22;551;48.524;9.056;2022-11-25T03:18:08;2.50;1.00
506;DHT22;551;48.524;9.056;2022-11-25T03:20:34;2.50;1.00
506;DHT22;551;48.524;9.056;2022-11-25T03:23:00;2.50;1.00
506;DHT22;551;48.524;9.056;2022-11-25T03:25:25;2.40;1.00
506;DHT22;551;48.524;9.056;2022-11-25T03:27:51;2.40;1.00
506;DHT22;551;48.524;9.056;2022-11-25T03:30:19;2.30;1.00
506;DHT22;551;48.524;9.056;2022-11-25T03:32:45;2.30;1.00
506;DHT22;551;48.524;9.056;2022-11-25T03:35:11;2.30;1.00
506;DHT22;551;48.524;9.056;2022-11-25T03:37:38;2.30;1.00
506;DHT22;551;48.524;9.056;2022-11-25T03:40:05;2.30;1.00
506;DHT22;551;48.524;9.056;2022-11-25T03:42:31;2.40;1.00
506;DHT22;551;48.524;9.056;2022-11-25T03:44:57;2.40;1.00
506;DHT22;551;48.524;9.056;2022-11-25T03:47:23;2.40;1.00
506;DHT22;551;48.524;9.056;2022-11-25T03:49:48;2.50;1.00
506;DHT22;551;48.524;9.056;2022-11-25T03:52:14;2.50;1.00
506;DHT22;551;48.524;9.056;2022-11-25T03:54:39;2.60;1.00
506;DHT22;551;48.524;9.056;2022-11-25T03:57:05;2.60;1.00
506;DHT22;551;48.524;9.056;2022-11-25T03:59:32;2.60;1.00
506;DHT22;551;48.524;9.056;2022-11-25T04:01:57;2.70;1.00
506;DHT22;551;48.524;9.056;2022-11-25T04:04:23;2.70;1.00
506;DHT22;551;48.524;9.056;2022-11-25T04:06:48;2.70;1.00
506;DHT22;551;48.524;9.056;2022-11-25T04:09:14;2.70;1.00
506;DHT22;551;48.524;9.056;2022-11-25T04:11:40;2.70;1.00
506;DHT22;551;48.524;9.056;2022-11-25T04:14:24;2.80;1.00
506;DHT22;551;48.524;9.056;2022-11-25T04:16:50;2.80;1.00
506;DHT22;551;48.524;9.056;2022-11-25T04:19:15;2.80;1.00
506;DHT22;551;48.524;9.056;2022-11-25T04:21:41;2.80;1.00
506;DHT22;551;48.524;9.056;2022-11-25T04:24:07;2.90;1.00
506;DHT22;551;48.524;9.056;2022-11-25T04:26:32;2.90;1.00
506;DHT22;551;48.524;9.056;2022-11-25T04:28:58;2.90;1.00
506;DHT22;551;48.524;9.056;2022-11-25T04:31:23;2.90;1.00
506;DHT22;551;48.524;9.056;2022-11-25T04:33:49;2.90;1.00
506;DHT22;551;48.524;9.056;2022-11-25T04:36:14;2.90;1.00
506;DHT22;551;48.524;9.056;2022-11-25T04:38:40;2.90;1.00
506;DHT22;551;48.524;9.056;2022-11-25T04:41:05;2.90;1.00
506;DHT22;551;48.524;9.056;2022-11-25T04:43:31;2.90;1.00
506;DHT22;551;48.524;9.056;2022-11-25T04:45:57;2.80;1.00
506;DHT22;551;48.524;9.056;2022-11-25T04:48:23;2.80;1.00
506;DHT22;551;48.524;9.056;2022-11-25T04:50:49;2.80;1.00
506;DHT22;551;48.524;9.056;2022-11-25T04:53:15;2.80;1.00
506;DHT22;551;48.524;9.056;2022-11-25T04:55:40;2.70;1.00
506;DHT22;551;48.524;9.056;2022-11-25T04:58:06;2.60;1.00
506;DHT22;551;48.524;9.056;2022-11-25T05:00:32;2.60;1.00
506;DHT22;551;48.524;9.056;2022-11-25T05:02:57;2.50;1.00
506;DHT22;551;48.524;9.056;2022-11-25T05:05:23;2.40;1.00
506;DHT22;551;48.524;9.056;2022-11-25T05:07:48;2.40;1.00
506;DHT22;551;48.524;9.056;2022-11-25T05:10:14;2.30;1.00
506;DHT22;551;48.524;9.056;2022-11-25T05:12:40;2.30;1.00
506;DHT22;551;48.524;9.056;2022-11-25T05:15:06;2.20;1.00
506;DHT22;551;48.524;9.056;2022-11-25T05:17:34;2.20;1.00
506;DHT22;551;48.524;9.056;2022-11-25T05:19:59;2.20;1.00
506;DHT22;551;48.524;9.056;2022-11-25T05:22:28;2.20;1.00
506;DHT22;551;48.524;9.056;2022-11-25T05:24:54;2.10;1.00
506;DHT22;551;48.524;9.056;2022-11-25T05:27:20;2.10;1.00
506;DHT22;551;48.524;9.056;2022-11-25T05:29:47;2.10;1.00
506;DHT22;551;48.524;9.056;2022-11-25T05:32:13;2.00;1.00
506;DHT22;551;48.524;9.056;2022-11-25T05:34:39;2.10;1.00
506;DHT22;551;48.524;9.056;2022-11-25T05:37:05;2.10;1.00
506;DHT22;551;48.524;9.056;2022-11-25T05:39:30;2.20;1.00
506;DHT22;551;48.524;9.056;2022-11-25T05:41:56;2.20;1.00
506;DHT22;551;48.524;9.056;2022-11-25T05:44:21;2.20;1.00
506;DHT22;551;48.524;9.056;2022-11-25T05:46:47;2.20;1.00
506;DHT22;551;48.524;9.056;2022-11-25T05:49:13;2.20;1.00
506;DHT22;551;48.524;9.056;2022-11-25T05:51:39;2.10;1.00
506;DHT22;551;48.524;9.056;2022-11-25T05:54:05;2.00;1.00
506;DHT22;551;48.524;9.056;2022-11-25T05:56:31;2.00;1.00
506;DHT22;551;48.524;9.056;2022-11-25T05:59:00;2.00;1.00
506;DHT22;551;48.524;9.056;2022-11-25T06:01:25;2.00;1.00
506;DHT22;551;48.524;9.056;2022-11-25T06:03:51;2.00;1.00
506;DHT22;551;48.524;9.056;2022-11-25T06:06:16;2.00;1.00
506;DHT22;551;48.524;9.056;2022-11-25T06:08:42;2.00;1.00
506;DHT22;551;48.524;9.056;2022-11-25T06:11:13;2.00;1.00
506;DHT22;551;48.524;9.056;2022-11-25T06:13:40;1.90;1.00
506;DHT22;551;48.524;9.056;2022-11-25T06:16:17;1.80;1.00
506;DHT22;551;48.524;9.056;2022-11-25T06:18:44;1.70;1.00
506;DHT22;551;48.524;9.056;2022-11-25T06:21:10;1.60;1.00
506;DHT22;551;48.524;9.056;2022-11-25T06:23:37;1.60;1.00
506;DHT22;551;48.524;9.056;2022-11-25T06:26:09;1.60;1.00
506;DHT22;551;48.524;9.056;2022-11-25T06:28:35;1.60;1.00
506;DHT22;551;48.524;9.056;2022-11-25T06:31:11;1.60;1.00
506;DHT22;551;48.524;9.056;2022-11-25T06:33:37;1.60;1.00
506;DHT22;551;48.524;9.056;2022-11-25T06:36:07;1.60;1.00
506;DHT22;551;48.524;9.056;2022-11-25T06:38:34;1.60;1.00
506;DHT22;551;48.524;9.056;2022-11-25T06:41:01;1.70;1.00
506;DHT22;551;48.524;9.056;2022-11-25T06:43:27;1.80;1.00
506;DHT22;551;48.524;9.056;2022-11-25T06:45:52;1.90;1.00
506;DHT22;551;48.524;9.056;2022-11-25T06:48:18;1.80;1.00
506;DHT22;551;48.524;9.056;2022-11-25T06:50:43;1.90;1.00
506;DHT22;551;48.524;9.056;2022-11-25T06:53:09;1.90;1.00
506;DHT22;551;48.524;9.056;2022-11-25T06:55:34;2.00;1.00
506;DHT22;551;48.524;9.056;2022-11-25T06:58:00;2.00;1.00
506;DHT22;551;48.524;9.056;2022-11-25T07:00:26;2.00;1.00
506;DHT22;551;48.524;9.056;2022-11-25T07:02:52;2.10;1.00
506;DHT22;551;48.524;9.056;2022-11-25T07:05:17;2.10;1.00
506;DHT22;551;48.524;9.056;2022-11-25T07:07:43;2.20;1.00
506;DHT22;551;48.524;9.056;2022-11-25T07:10:09;2.30;1.00
506;DHT22;551;48.524;9.056;2022-11-25T07:12:34;2.30;1.00
506;DHT22;551;48.524;9.056;2022-11-25T07:15:00;2.40;1.00
506;DHT22;551;48.524;9.056;2022-11-25T07:17:25;2.50;1.00
506;DHT22;551;48.524;9.056;2022-11-25T07:19:51;2.60;1.00
506;DHT22;551;48.524;9.056;2022-11-25T07:22:16;2.60;1.00
506;DHT22;551;48.524;9.056;2022-11-25T07:24:42;2.70;1.00
506;DHT22;551;48.524;9.056;2022-11-25T07:27:07;2.70;1.00
506;DHT22;551;48.524;9.056;2022-11-25T07:29:33;2.70;1.00
506;DHT22;551;48.524;9.056;2022-11-25T07:32:00;2.80;1.00
506;DHT22;551;48.524;9.056;2022-11-25T07:34:25;2.80;1.00
506;DHT22;551;48.524;9.056;2022-11-25T07:36:51;2.90;1.00
506;DHT22;551;48.524;9.056;2022-11-25T07:39:22;2.90;1.00
506;DHT22;551;48.524;9.056;2022-11-25T07:41:53;2.90;1.00
506;DHT22;551;48.524;9.056;2022-11-25T07:44:20;2.90;1.00
506;DHT22;551;48.524;9.056;2022-11-25T07:46:47;3.10;1.00
506;DHT22;551;48.524;9.056;2022-11-25T07:49:21;3.20;1.00
506;DHT22;551;48.524;9.056;2022-11-25T07:51:54;3.20;1.00
506;DHT22;551;48.524;9.056;2022-11-25T07:54:21;3.20;1.00
506;DHT22;551;48.524;9.056;2022-11-25T07:56:47;3.30;1.00
506;DHT22;551;48.524;9.056;2022-11-25T07:59:16;3.20;1.00
506;DHT22;551;48.524;9.056;2022-11-25T08:01:42;3.30;1.00
506;DHT22;551;48.524;9.056;2022-11-25T08:04:10;3.20;1.00
506;DHT22;551;48.524;9.056;2022-11-25T08:06:38;3.20;1.00
506;DHT22;551;48.524;9.056;2022-11-25T08:09:04;3.20;1.00
506;DHT22;551;48.524;9.056;2022-11-25T08:11:30;3.20;1.00
506;DHT22;551;48.524;9.056;2022-11-25T08:13:57;3.20;1.00
506;DHT22;551;48.524;9.056;2022-11-25T08:16:25;3.20;1.00
506;DHT22;551;48.524;9.056;2022-11-25T08:18:53;3.20;1.00
506;DHT22;551;48.524;9.056;2022-11-25T08:21:18;3.30;1.00
506;DHT22;551;48.524;9.056;2022-11-25T08:23:45;3.40;1.00
506;DHT22;551;48.524;9.056;2022-11-25T08:26:18;3.40;1.00
506;DHT22;551;48.524;9.056;2022-11-25T08:28:44;3.60;1.00
506;DHT22;551;48.524;9.056;2022-11-25T08:31:12;3.60;1.00
506;DHT22;551;48.524;9.056;2022-11-25T08:33:38;3.70;1.00
506;DHT22;551;48.524;9.056;2022-11-25T08:36:04;3.70;1.00
506;DHT22;551;48.524;9.056;2022-11-25T08:38:30;3.90;1.00
506;DHT22;551;48.524;9.056;2022-11-25T08:40:56;3.90;1.00
506;DHT22;551;48.524;9.056;2022-11-25T08:43:22;4.00;1.00
506;DHT22;551;48.524;9.056;2022-11-25T08:45:48;4.00;1.00
506;DHT22;551;48.524;9.056;2022-11-25T08:48:15;4.10;1.00
506;DHT22;551;48.524;9.056;2022-11-25T08:50:45;4.10;1.00
506;DHT22;551;48.524;9.056;2022-11-25T08:53:11;4.30;1.00
506;DHT22;551;48.524;9.056;2022-11-25T08:55:37;4.30;1.00
506;DHT22;551;48.524;9.056;2022-11-25T08:58:04;4.40;1.00
506;DHT22;551;48.524;9.056;2022-11-25T09:00:30;4.50;1.00
506;DHT22;551;48.524;9.056;2022-11-25T09:02:55;4.70;1.00
506;DHT22;551;48.524;9.056;2022-11-25T09:05:21;4.70;1.00
506;DHT22;551;48.524;9.056;2022-11-25T09:07:47;4.80;1.00
506;DHT22;551;48.524;9.056;2022-11-25T09:10:15;4.90;1.00
506;DHT22;551;48.524;9.056;2022-11-25T09:12:41;5.10;1.00
506;DHT22;551;48.524;9.056;2022-11-25T09:15:08;5.50;1.00
506;DHT22;551;48.524;9.056;2022-11-25T09:17:33;6.20;1.00
506;DHT22;551;48.524;9.056;2022-11-25T09:20:04;7.30;1.00
506;DHT22;551;48.524;9.056;2022-11-25T09:22:31;8.40;1.00
506;DHT22;551;48.524;9.056;2022-11-25T09:24:56;9.60;1.00
506;DHT22;551;48.524;9.056;2022-11-25T09:27:22;10.30;1.00
506;DHT22;551;48.524;9.056;2022-11-25T09:29:47;10.40;1.00
506;DHT22;551;48.524;9.056;2022-11-25T09:32:13;9.80;1.00
506;DHT22;551;48.524;9.056;2022-11-25T09:34:38;9.30;1.00
506;DHT22;551;48.524;9.056;2022-11-25T09:37:04;8.80;1.00
506;DHT22;551;48.524;9.056;2022-11-25T09:39:30;8.60;1.00
506;DHT22;551;48.524;9.056;2022-11-25T09:45:26;8.90;1.00
506;DHT22;551;48.524;9.056;2022-11-25T09:51:19;9.10;1.00
506;DHT22;551;48.524;9.056;2022-11-25T09:53:53;8.90;1.00
506;DHT22;551;48.524;9.056;2022-11-25T09:56:41;9.10;1.00
506;DHT22;551;48.524;9.056;2022-11-25T09:59:36;9.10;1.00
506;DHT22;551;48.524;9.056;2022-11-25T10:02:15;8.60;1.00
506;DHT22;551;48.524;9.056;2022-11-25T10:04:50;8.60;1.00
506;DHT22;551;48.524;9.056;2022-11-25T10:07:23;8.40;1.00
506;DHT22;551;48.524;9.056;2022-11-25T10:09:53;8.60;1.00
506;DHT22;551;48.524;9.056;2022-11-25T10:12:24;8.60;1.00
506;DHT22;551;48.524;9.056;2022-11-25T10:14:58;8.70;1.00
506;DHT22;551;48.524;9.056;2022-11-25T10:17:48;8.60;1.00
506;DHT22;551;48.524;9.056;2022-11-25T10:20:30;8.60;1.00
506;DHT22;551;48.524;9.056;2022-11-25T10:23:01;8.50;1.00
506;DHT22;551;48.524;9.056;2022-11-25T10:25:30;8.60;1.00
506;DHT22;551;48.524;9.056;2022-11-25T10:28:15;8.90;1.00
506;DHT22;551;48.524;9.056;2022-11-25T10:33:29;9.60;1.00
506;DHT22;551;48.524;9.056;2022-11-25T10:39:04;10.90;1.00
506;DHT22;551;48.524;9.056;2022-11-25T10:41:43;12.00;1.00
506;DHT22;551;48.524;9.056;2022-11-25T10:44:29;13.40;1.00
506;DHT22;551;48.524;9.056;2022-11-25T10:50:07;15.10;1.00
506;DHT22;551;48.524;9.056;2022-11-25T10:52:44;14.40;1.00
506;DHT22;551;48.524;9.056;2022-11-25T10:55:16;13.50;1.00
506;DHT22;551;48.524;9.056;2022-11-25T10:57:43;12.40;1.00
506;DHT22;551;48.524;9.056;2022-11-25T11:00:34;11.80;1.00
506;DHT22;551;48.524;9.056;2022-11-25T11:03:15;11.20;1.00
506;DHT22;551;48.524;9.056;2022-11-25T11:05:48;10.80;1.00
506;DHT22;551;48.524;9.056;2022-11-25T11:08:35;10.30;1.00
506;DHT22;551;48.524;9.056;2022-11-25T11:13:44;9.70;1.00
506;DHT22;551;48.524;9.056;2022-11-25T11:16:29;9.50;1.00
506;DHT22;551;48.524;9.056;2022-11-25T11:18:56;9.40;1.00
506;DHT22;551;48.524;9.056;2022-11-25T11:21:29;9.30;1.00
506;DHT22;551;48.524;9.056;2022-11-25T11:23:56;9.10;1.00
506;DHT22;551;48.524;9.056;2022-11-25T11:26:34;9.00;1.00
506;DHT22;551;48.524;9.056;2022-11-25T11:29:04;8.90;1.00
506;DHT22;551;48.524;9.056;2022-11-25T11:31:38;8.90;1.00
506;DHT22;551;48.524;9.056;2022-11-25T11:34:28;8.80;1.00
506;DHT22;551;48.524;9.056;2022-11-25T11:40:20;8.80;1.00
506;DHT22;551;48.524;9.056;2022-11-25T11:48:50;9.20;1.00
506;DHT22;551;48.524;9.056;2022-11-25T11:54:31;9.50;1.00
506;DHT22;551;48.524;9.056;2022-11-25T11:57:13;9.30;1.00
506;DHT22;551;48.524;9.056;2022-11-25T11:59:51;9.50;1.00
506;DHT22;551;48.524;9.056;2022-11-25T12:02:23;9.40;1.00
506;DHT22;551;48.524;9.056;2022-11-25T12:07:25;9.40;1.00
506;DHT22;551;48.524;9.056;2022-11-25T12:10:53;9.30;1.00
506;DHT22;551;48.524;9.056;2022-11-25T12:18:46;9.20;1.00
506;DHT22;551;48.524;9.056;2022-11-25T12:27:11;9.40;1.00
506;DHT22;551;48.524;9.056;2022-11-25T12:30:04;9.60;1.00
506;DHT22;551;48.524;9.056;2022-11-25T12:37:44;9.70;1.00
506;DHT22;551;48.524;9.056;2022-11-25T12:40:17;9.50;1.00
506;DHT22;551;48.524;9.056;2022-11-25T12:42:47;9.50;1.00
506;DHT22;551;48.524;9.056;2022-11-25T12:45:21;9.60;1.00
506;DHT22;551;48.524;9.056;2022-11-25T12:47:46;9.80;1.00
506;DHT22;551;48.524;9.056;2022-11-25T12:50:22;9.80;1.00
506;DHT22;551;48.524;9.056;2022-11-25T12:53:35;9.80;1.00
506;DHT22;551;48.524;9.056;2022-11-25T12:56:05;9.70;1.00
506;DHT22;551;48.524;9.056;2022-11-25T12:58:47;9.80;1.00
506;DHT22;551;48.524;9.056;2022-11-25T13:01:24;9.80;1.00
506;DHT22;551;48.524;9.056;2022-11-25T13:12:39;10.40;1.00
506;DHT22;551;48.524;9.056;2022-11-25T13:17:47;10.30;1.00
506;DHT22;551;48.524;9.056;2022-11-25T13:25:43;10.00;1.00
506;DHT22;551;48.524;9.056;2022-11-25T13:28:35;10.00;1.00
506;DHT22;551;48.524;9.056;2022-11-25T13:31:31;10.10;1.00
506;DHT22;551;48.524;9.056;2022-11-25T13:36:24;9.90;1.00
506;DHT22;551;48.524;9.056;2022-11-25T13:46:57;10.40;1.00
506;DHT22;551;48.524;9.056;2022-11-25T13:49:30;10.60;1.00
506;DHT22;551;48.524;9.056;2022-11-25T13:52:30;10.90;1.00
506;DHT22;551;48.524;9.056;2022-11-25T13:54:57;11.60;1.00
506;DHT22;551;48.524;9.056;2022-11-25T13:57:31;12.50;1.00
506;DHT22;551;48.524;9.056;2022-11-25T14:02:46;13.30;1.00
506;DHT22;551;48.524;9.056;2022-11-25T14:05:33;13.10;1.00
506;DHT22;551;48.524;9.056;2022-11-25T14:19:30;11.80;1.00
506;DHT22;551;48.524;9.056;2022-11-25T14:24:47;11.30;1.00
506;DHT22;551;48.524;9.056;2022-11-25T14:27:21;11.10;1.00
506;DHT22;551;48.524;9.056;2022-11-25T14:30:13;10.90;1.00
506;DHT22;551;48.524;9.056;2022-11-25T14:32:45;10.70;1.00
506;DHT22;551;48.524;9.056;2022-11-25T14:35:16;10.60;1.00
506;DHT22;551;48.524;9.056;2022-11-25T14:38:02;10.50;1.00
506;DHT22;551;48.524;9.056;2022-11-25T14:40:35;10.50;1.00
506;DHT22;551;48.524;9.056;2022-11-25T14:43:05;10.50;1.00
506;DHT22;551;48.524;9.056;2022-11-25T14:45:33;10.50;1.00
506;DHT22;551;48.524;9.056;2022-11-25T14:48:16;10.40;1.00
506;DHT22;551;48.524;9.056;2022-11-25T14:51:10;10.50;1.00
506;DHT22;551;48.524;9.056;2022-11-25T14:53:42;10.50;1.00
506;DHT22;551;48.524;9.056;2022-11-25T14:56:10;10.40;1.00
506;DHT22;551;48.524;9.056;2022-11-25T14:58:56;10.40;1.00
506;DHT22;551;48.524;9.056;2022-11-25T15:01:50;10.40;1.00
506;DHT22;551;48.524;9.056;2022-11-25T15:04:18;10.50;1.00
506;DHT22;551;48.524;9.056;2022-11-25T15:06:55;10.50;1.00
506;DHT22;551;48.524;9.056;2022-11-25T15:09:23;10.40;1.00
506;DHT22;551;48.524;9.056;2022-11-25T15:12:00;10.40;1.00
506;DHT22;551;48.524;9.056;2022-11-25T15:14:29;10.50;1.00
506;DHT22;551;48.524;9.056;2022-11-25T15:16:56;10.40;1.00
506;DHT22;551;48.524;9.056;2022-11-25T15:19:25;10.40;1.00
506;DHT22;551;48.524;9.056;2022-11-25T15:22:02;10.40;1.00
506;DHT22;551;48.524;9.056;2022-11-25T15:24:30;10.30;1.00
506;DHT22;551;48.524;9.056;2022-11-25T15:26:58;10.20;1.00
506;DHT22;551;48.524;9.056;2022-11-25T15:29:25;10.20;1.00
506;DHT22;551;48.524;9.056;2022-11-25T15:31:52;10.20;1.00
506;DHT22;551;48.524;9.056;2022-11-25T15:34:20;10.20;1.00
506;DHT22;551;48.524;9.056;2022-11-25T15:36:47;10.10;1.00
506;DHT22;551;48.524;9.056;2022-11-25T15:41:47;10.10;1.00
506;DHT22;551;48.524;9.056;2022-11-25T15:44:52;10.10;1.00
506;DHT22;551;48.524;9.056;2022-11-25T15:47:29;10.00;1.00
506;DHT22;551;48.524;9.056;2022-11-25T15:52:22;9.60;1.00
506;DHT22;551;48.524;9.056;2022-11-25T15:54:49;9.60;1.00
506;DHT22;551;48.524;9.056;2022-11-25T15:57:26;9.50;1.00
506;DHT22;551;48.524;9.056;2022-11-25T16:02:37;9.40;1.00
506;DHT22;551;48.524;9.056;2022-11-25T16:18:21;9.30;1.00
506;DHT22;551;48.524;9.056;2022-11-25T16:20:50;9.20;1.00
506;DHT22;551;48.524;9.056;2022-11-25T16:23:20;9.20;1.00
506;DHT22;551;48.524;9.056;2022-11-25T16:26:01;9.10;1.00
506;DHT22;551;48.524;9.056;2022-11-25T16:28:26;9.00;1.00
506;DHT22;551;48.524;9.056;2022-11-25T16:30:52;9.10;1.00
506;DHT22;551;48.524;9.056;2022-11-25T16:33:19;9.20;1.00
506;DHT22;551;48.524;9.056;2022-11-25T16:35:44;9.20;1.00
506;DHT22;551;48.524;9.056;2022-11-25T16:38:10;9.10;1.00
506;DHT22;551;48.524;9.056;2022-11-25T16:40:37;9.00;1.00
506;DHT22;551;48.524;9.056;2022-11-25T16:43:05;9.00;1.00
506;DHT22;551;48.524;9.056;2022-11-25T16:45:31;9.00;1.00
506;DHT22;551;48.524;9.056;2022-11-25T16:47:57;9.00;1.00
506;DHT22;551;48.524;9.056;2022-11-25T16:50:22;9.00;1.00
506;DHT22;551;48.524;9.056;2022-11-25T16:52:48;9.00;1.00
506;DHT22;551;48.524;9.056;2022-11-25T16:55:14;8.90;1.00
506;DHT22;551;48.524;9.056;2022-11-25T16:57:40;8.80;1.00
506;DHT22;551;48.524;9.056;2022-11-25T17:00:11;8.70;1.00
506;DHT22;551;48.524;9.056;2022-11-25T17:02:38;8.70;1.00
506;DHT22;551;48.524;9.056;2022-11-25T17:05:15;8.50;1.00
506;DHT22;551;48.524;9.056;2022-11-25T17:07:41;8.40;1.00
506;DHT22;551;48.524;9.056;2022-11-25T17:10:07;8.40;1.00
506;DHT22;551;48.524;9.056;2022-11-25T17:12:34;8.30;1.00
506;DHT22;551;48.524;9.056;2022-11-25T17:15:00;8.20;1.00
506;DHT22;551;48.524;9.056;2022-11-25T17:17:26;8.10;1.00
506;DHT22;551;48.524;9.056;2022-11-25T17:19:52;8.00;1.00
506;DHT22;551;48.524;9.056;2022-11-25T17:22:21;8.00;1.00
506;DHT22;551;48.524;9.056;2022-11-25T17:24:47;7.90;1.00
506;DHT22;551;48.524;9.056;2022-11-25T17:27:26;7.80;1.00
506;DHT22;551;48.524;9.056;2022-11-25T17:29:53;7.80;1.00
506;DHT22;551;48.524;9.056;2022-11-25T17:32:20;7.90;1.00
506;DHT22;551;48.524;9.056;2022-11-25T17:34:46;7.80;1.00
506;DHT22;551;48.524;9.056;2022-11-25T17:37:22;7.80;1.00
506;DHT22;551;48.524;9.056;2022-11-25T17:39:49;7.80;1.00
506;DHT22;551;48.524;9.056;2022-11-25T17:42:18;7.80;1.00
506;DHT22;551;48.524;9.056;2022-11-25T17:44:45;7.70;1.00
506;DHT22;551;48.524;9.056;2022-11-25T17:47:14;7.70;1.00
506;DHT22;551;48.524;9.056;2022-11-25T17:49:40;7.60;1.00
506;DHT22;551;48.524;9.056;2022-11-25T17:52:05;7.60;1.00
506;DHT22;551;48.524;9.056;2022-11-25T17:54:31;7.50;1.00
506;DHT22;551;48.524;9.056;2022-11-25T17:56:57;7.50;1.00
506;DHT22;551;48.524;9.056;2022-11-25T17:59:25;7.50;1.00
506;DHT22;551;48.524;9.056;2022-11-25T18:01:52;7.50;1.00
506;DHT22;551;48.524;9.056;2022-11-25T18:04:24;7.50;1.00
506;DHT22;551;48.524;9.056;2022-11-25T18:06:50;7.50;1.00
506;DHT22;551;48.524;9.056;2022-11-25T18:09:16;7.50;1.00
506;DHT22;551;48.524;9.056;2022-11-25T18:11:46;7.50;1.00
506;DHT22;551;48.524;9.056;2022-11-25T18:14:18;7.50;1.00
506;DHT22;551;48.524;9.056;2022-11-25T18:16:46;7.50;1.00
506;DHT22;551;48.524;9.056;2022-11-25T18:19:12;7.50;1.00
506;DHT22;551;48.524;9.056;2022-11-25T18:21:39;7.50;1.00
506;DHT22;551;48.524;9.056;2022-11-25T18:24:04;7.50;1.00
506;DHT22;551;48.524;9.056;2022-11-25T18:26:31;7.50;1.00
506;DHT22;551;48.524;9.056;2022-11-25T18:29:00;7.50;1.00
506;DHT22;551;48.524;9.056;2022-11-25T18:31:26;7.50;1.00
506;DHT22;551;48.524;9.056;2022-11-25T18:33:52;7.50;1.00
506;DHT22;551;48.524;9.056;2022-11-25T18:36:17;7.50;1.00
506;DHT22;551;48.524;9.056;2022-11-25T18:38:43;7.50;1.00
506;DHT22;551;48.524;9.056;2022-11-25T18:41:19;7.60;1.00
506;DHT22;551;48.524;9.056;2022-11-25T18:43:45;7.60;1.00
506;DHT22;551;48.524;9.056;2022-11-25T18:46:11;7.60;1.00
506;DHT22;551;48.524;9.056;2022-11-25T18:48:37;7.60;1.00
506;DHT22;551;48.524;9.056;2022-11-25T18:51:05;7.60;1.00
506;DHT22;551;48.524;9.056;2022-11-25T18:53:30;7.60;1.00
506;DHT22;551;48.524;9.056;2022-11-25T18:55:57;7.70;1.00
506;DHT22;551;48.524;9.056;2022-11-25T18:58:25;7.70;1.00
506;DHT22;551;48.524;9.056;2022-11-25T19:01:00;7.70;1.00
506;DHT22;551;48.524;9.056;2022-11-25T19:03:26;7.70;1.00
506;DHT22;551;48.524;9.056;2022-11-25T19:05:52;7.70;1.00
506;DHT22;551;48.524;9.056;2022-11-25T19:08:23;7.80;1.00
506;DHT22;551;48.524;9.056;2022-11-25T19:10:49;7.80;1.00
506;DHT22;551;48.524;9.056;2022-11-25T19:13:28;7.80;1.00
506;DHT22;551;48.524;9.056;2022-11-25T19:16:00;7.80;1.00
506;DHT22;551;48.524;9.056;2022-11-25T19:18:28;7.80;1.00
506;DHT22;551;48.524;9.056;2022-11-25T19:20:54;7.90;1.00
506;DHT22;551;48.524;9.056;2022-11-25T19:23:22;7.80;1.00